Egan, South Dakota
Current Conditions -  °F | °C
As of 6:14 PM on Thursday 27 Nov 2014 (Local Time) from KPQN Reporting Station
Broken Clouds Broken Clouds  
Wind Chill: -5°   Ceiling: 11000
Heat Index: 10°   Visibility: 10mi
Dew Point:   Wind: 13mph
Humidity: 73%   Direction: 160°SSE
Pressure: 30.18"   Gusts: NA
Location:  44°N, 96.65°W
Report Text: KPQN 280014Z AUTO 16011KT 10SM SCT080 BKN110 M12/M16 A3018 RMK AO2
Loading
Personal Weather Stations






























Interactive Weather Map New forecast layout! Learn more

10-Day Weather Forecast

Advertisements
Track Severe Weather on mobile